Time;durP1;ratioP1;P1;durP2;ratioP2;P2;SDS_P1;SDS_P2;PMS_P1;PMS_P2;Temp;Humidity;BMP_temperature;BMP_pressure;BME280_temperature;BME280_humidity;BME280_pressure;Samples;Min_cycle;Max_cycle;Signal;HPM_P1;HPM_P2
2021/03/19 00:00:10;;;;;;;14.60;6.95;;;;;;;4.68;73.61;99780.31;5026298;28;20068;-71
2021/03/19 00:02:35;;;;;;;38.13;8.18;;;;;;;4.63;74.52;99797.84;5053488;28;20057;-70
2021/03/19 00:05:00;;;;;;;11.20;5.95;;;;;;;4.41;71.07;99804.47;5028993;28;20079;-68
2021/03/19 00:07:26;;;;;;;11.13;5.65;;;;;;;4.11;71.44;99816.47;5028349;28;20034;-70
2021/03/19 00:09:52;;;;;;;13.43;7.18;;;;;;;3.94;72.41;99807.28;5030048;28;20068;-71
2021/03/19 00:12:18;;;;;;;8.63;5.72;;;;;;;3.80;72.60;99811.94;4996506;28;20508;-70
2021/03/19 00:14:43;;;;;;;11.27;6.95;;;;;;;3.73;73.34;99824.22;5034925;28;20040;-70
2021/03/19 00:17:09;;;;;;;8.10;5.75;;;;;;;3.50;72.79;99821.25;5029655;28;20116;-72
2021/03/19 00:19:34;;;;;;;10.02;6.07;;;;;;;3.40;73.23;99823.16;5029667;28;20033;-71
2021/03/19 00:21:59;;;;;;;10.60;6.22;;;;;;;3.33;73.93;99822.41;5030270;28;20029;-71
2021/03/19 00:24:25;;;;;;;9.93;5.80;;;;;;;3.38;74.43;99814.50;5028679;28;20116;-71
2021/03/19 00:26:50;;;;;;;9.48;5.35;;;;;;;3.39;74.29;99818.81;5028298;28;20129;-71
2021/03/19 00:29:15;;;;;;;7.97;4.60;;;;;;;3.38;73.64;99817.13;5052385;28;20064;-71
2021/03/19 00:31:41;;;;;;;8.10;5.00;;;;;;;3.38;73.99;99819.72;5037179;28;20036;-71
2021/03/19 00:34:07;;;;;;;8.02;4.78;;;;;;;3.35;73.57;99822.41;5029848;28;20045;-71
2021/03/19 00:36:32;;;;;;;10.00;4.95;;;;;;;3.32;74.35;99827.66;5029700;28;20523;-71
2021/03/19 00:38:57;;;;;;;7.65;5.00;;;;;;;3.30;74.29;99826.81;5027936;28;20037;-72
2021/03/19 00:41:24;;;;;;;8.80;6.22;;;;;;;3.28;74.51;99826.84;5029201;28;20037;-71
2021/03/19 00:43:49;;;;;;;11.57;5.80;;;;;;;3.31;75.05;99818.97;5029418;28;20034;-71
2021/03/19 00:46:14;;;;;;;8.73;5.60;;;;;;;3.41;74.96;99819.66;5029502;28;20041;-71
2021/03/19 00:48:40;;;;;;;8.00;5.57;;;;;;;3.48;75.27;99821.25;5029695;28;20072;-71
2021/03/19 00:51:05;;;;;;;13.50;8.30;;;;;;;3.52;75.59;99817.72;5029611;28;20033;-72
2021/03/19 00:53:30;;;;;;;14.40;9.75;;;;;;;3.48;75.56;99823.88;5029389;28;20037;-71
2021/03/19 00:55:56;;;;;;;12.25;8.23;;;;;;;3.51;75.91;99825.56;5029646;28;20029;-72
2021/03/19 00:58:22;;;;;;;15.32;10.23;;;;;;;3.55;76.36;99829.81;5029077;28;20405;-71
2021/03/19 01:00:47;;;;;;;19.00;11.63;;;;;;;3.58;76.02;99822.78;5028771;28;20117;-72
2021/03/19 01:03:13;;;;;;;10.80;8.20;;;;;;;3.64;76.30;99827.91;5029555;28;20042;-71
2021/03/19 01:05:46;;;;;;;16.05;10.25;;;;;;;3.67;75.61;99824.38;5029491;28;20033;-71
2021/03/19 01:08:13;;;;;;;14.43;9.60;;;;;;;3.68;76.03;99835.66;5029402;28;20485;-71
2021/03/19 01:10:42;;;;;;;12.68;10.63;;;;;;;3.64;75.45;99827.91;5029082;28;20052;-72
2021/03/19 01:13:09;;;;;;;17.83;11.00;;;;;;;3.68;75.75;99841.72;5029323;28;20034;-72
2021/03/19 01:15:35;;;;;;;16.25;12.35;;;;;;;3.68;75.95;99849.53;5029461;28;20488;-71
2021/03/19 01:18:01;;;;;;;15.15;11.43;;;;;;;3.69;75.61;99842.56;5029349;28;20040;-71
2021/03/19 01:20:29;;;;;;;19.60;12.75;;;;;;;3.68;75.49;99843.47;5029504;28;20443;-71
2021/03/19 01:22:55;;;;;;;18.10;14.88;;;;;;;3.72;75.73;99847.75;5033208;28;20067;-71
2021/03/19 01:25:23;;;;;;;19.02;14.30;;;;;;;3.68;75.56;99846.94;5033084;28;20041;-71
2021/03/19 01:27:48;;;;;;;18.90;14.25;;;;;;;3.66;75.76;99844.34;5033027;28;20104;-71
2021/03/19 01:30:19;;;;;;;18.75;15.02;;;;;;;3.69;75.96;99847.78;5032967;28;20493;-71
2021/03/19 01:32:47;;;;;;;20.02;15.23;;;;;;;3.69;75.66;99845.16;5032930;28;20117;-71
2021/03/19 01:35:14;;;;;;;21.80;15.73;;;;;;;3.69;75.74;99846.03;5033266;28;20083;-70
2021/03/19 01:37:41;;;;;;;21.85;16.75;;;;;;;3.68;75.47;99853.91;5031600;28;20036;-70
2021/03/19 01:40:08;;;;;;;19.13;15.05;;;;;;;3.70;75.85;99854.72;5032830;28;20098;-71
2021/03/19 01:42:36;;;;;;;23.58;15.15;;;;;;;3.71;75.30;99856.44;5032826;28;20048;-72
2021/03/19 01:45:07;;;;;;;22.13;16.20;;;;;;;3.67;75.02;99840.00;5032984;28;20055;-71
2021/03/19 01:48:10;;;;;;;21.35;17.52;;;;;;;3.65;75.18;99845.25;5032851;28;20090;-71
2021/03/19 01:51:13;;;;;;;21.35;17.38;;;;;;;3.57;74.84;99844.53;5032371;28;20041;-71
2021/03/19 01:54:16;;;;;;;23.17;16.27;;;;;;;3.61;75.51;99840.13;5032403;28;20033;-68
2021/03/19 01:57:18;;;;;;;21.42;16.42;;;;;;;3.62;75.25;99853.13;5031135;28;20088;-70
2021/03/19 02:00:21;;;;;;;28.90;15.73;;;;;;;3.64;74.77;99845.25;5038624;28;20037;-70
2021/03/19 02:03:24;;;;;;;22.77;16.85;;;;;;;3.63;74.92;99840.94;5032798;28;20511;-70
2021/03/19 02:06:27;;;;;;;28.35;19.08;;;;;;;3.58;74.53;99845.41;5052559;28;20049;-70
2021/03/19 02:09:30;;;;;;;19.30;15.27;;;;;;;3.57;74.69;99860.19;5051863;28;20067;-70
2021/03/19 02:12:33;;;;;;;25.45;19.40;;;;;;;3.55;74.37;99855.88;5051694;28;20036;-70
2021/03/19 02:15:35;;;;;;;21.95;17.25;;;;;;;3.60;75.21;99859.25;5052095;28;20041;-71
2021/03/19 02:18:38;;;;;;;31.38;17.83;;;;;;;3.58;74.95;99859.28;5052007;28;20033;-70
2021/03/19 02:21:41;;;;;;;26.45;16.88;;;;;;;3.50;75.39;99861.19;5051823;28;20447;-71
2021/03/19 02:24:44;;;;;;;25.48;17.30;;;;;;;3.36;75.16;99863.19;5051934;28;20112;-70
2021/03/19 02:27:47;;;;;;;19.05;14.10;;;;;;;3.37;74.50;99863.16;5051634;28;20052;-70
2021/03/19 02:30:50;;;;;;;26.65;16.23;;;;;;;3.33;74.32;99861.50;5051445;28;20025;-70
2021/03/19 02:33:16;;;;;;;22.50;15.73;;;;;;;3.32;74.59;99864.13;5050840;28;20041;-70
2021/03/19 02:35:52;;;;;;;26.75;17.52;;;;;;;3.32;74.60;99864.13;5051601;28;20072;-70
2021/03/19 02:38:18;;;;;;;25.60;20.65;;;;;;;3.22;74.42;99872.13;5051788;28;20041;-70
2021/03/19 02:40:43;;;;;;;22.98;19.42;;;;;;;3.11;74.26;99868.00;5044901;28;20039;-70
2021/03/19 02:43:09;;;;;;;25.48;20.10;;;;;;;3.13;74.59;99864.47;5031748;28;20112;-70
2021/03/19 02:45:34;;;;;;;27.98;19.25;;;;;;;3.13;73.67;99880.09;5031263;28;20041;-70
2021/03/19 02:47:59;;;;;;;22.38;16.65;;;;;;;3.10;73.96;99887.09;5031695;28;20028;-70
2021/03/19 02:50:24;;;;;;;26.83;21.42;;;;;;;3.07;74.06;99889.75;5031344;28;20048;-70
2021/03/19 02:52:50;;;;;;;24.05;18.63;;;;;;;3.00;74.01;99894.19;5032191;28;20025;-70
2021/03/19 02:55:17;;;;;;;26.60;20.63;;;;;;;2.91;74.13;99899.56;5031514;28;20037;-70
2021/03/19 02:57:43;;;;;;;26.70;19.42;;;;;;;2.81;74.04;99893.66;5031130;28;20029;-70
2021/03/19 03:00:11;;;;;;;23.63;18.38;;;;;;;2.81;74.45;99888.44;5029574;28;20507;-70
2021/03/19 03:02:36;;;;;;;24.55;18.05;;;;;;;2.79;74.58;99891.06;5030998;28;20045;-71
2021/03/19 03:05:02;;;;;;;25.35;18.60;;;;;;;2.77;73.85;99905.84;5031343;28;20033;-71
2021/03/19 03:07:30;;;;;;;27.63;18.42;;;;;;;2.82;73.74;99903.16;5031194;28;20076;-72
2021/03/19 03:09:57;;;;;;;26.63;16.90;;;;;;;2.87;73.80;99905.72;5046350;28;20029;-71
2021/03/19 03:12:23;;;;;;;21.88;18.08;;;;;;;2.88;73.69;99899.59;5031375;28;20033;-71
2021/03/19 03:14:48;;;;;;;22.55;16.92;;;;;;;2.90;73.92;99898.69;5031742;28;20033;-71
2021/03/19 03:17:14;;;;;;;23.83;19.15;;;;;;;2.88;74.06;99904.81;5031230;28;20562;-71
2021/03/19 03:19:40;;;;;;;23.98;17.75;;;;;;;2.92;75.00;99914.31;5030944;28;20060;-71
2021/03/19 03:22:08;;;;;;;26.20;17.70;;;;;;;2.93;74.45;99910.81;5046193;28;20105;-71
2021/03/19 03:24:33;;;;;;;26.65;18.70;;;;;;;2.94;74.32;99909.94;5031263;28;20037;-71
2021/03/19 03:26:58;;;;;;;22.90;18.40;;;;;;;2.88;73.78;99915.22;5031546;28;20022;-71
2021/03/19 03:29:25;;;;;;;26.85;18.77;;;;;;;2.86;74.16;99923.09;5031752;28;20034;-71
2021/03/19 03:31:56;;;;;;;21.98;17.80;;;;;;;2.84;74.36;99919.63;5032548;28;20026;-71
2021/03/19 03:34:22;;;;;;;23.02;17.48;;;;;;;2.88;74.02;99920.44;5032649;28;20049;-71
2021/03/19 03:36:49;;;;;;;20.75;15.95;;;;;;;2.94;73.75;99916.00;5030374;28;20033;-71
2021/03/19 03:39:25;;;;;;;29.92;19.40;;;;;;;2.94;73.38;99930.78;5030792;28;20493;-71
2021/03/19 03:41:51;;;;;;;24.88;18.15;;;;;;;2.80;73.67;99934.44;5031216;28;20033;-71
2021/03/19 03:44:17;;;;;;;24.25;17.60;;;;;;;2.76;73.47;99940.59;5030275;28;20030;-71
2021/03/19 03:46:44;;;;;;;24.10;17.67;;;;;;;2.79;73.63;99947.50;5035261;28;20052;-71
2021/03/19 03:49:11;;;;;;;25.58;17.08;;;;;;;2.73;73.77;99948.44;5029028;28;20032;-70
2021/03/19 03:51:37;;;;;;;25.55;19.55;;;;;;;2.61;73.42;99950.34;5030750;28;20443;-71
2021/03/19 03:54:02;;;;;;;18.48;15.40;;;;;;;2.63;73.89;99951.19;5030386;28;20033;-71
2021/03/19 03:56:28;;;;;;;25.52;19.05;;;;;;;2.67;73.56;99947.66;5030698;28;20053;-71
2021/03/19 03:58:54;;;;;;;26.02;19.60;;;;;;;2.65;74.93;99945.06;5029959;28;20488;-71
2021/03/19 04:01:20;;;;;;;30.27;18.60;;;;;;;2.64;73.80;99958.97;5030614;28;20416;-71
2021/03/19 04:03:45;;;;;;;21.95;17.98;;;;;;;2.66;73.88;99965.03;5030562;28;20481;-72
2021/03/19 04:06:12;;;;;;;23.02;17.05;;;;;;;2.72;73.85;99964.06;5030736;28;20116;-71
2021/03/19 04:08:38;;;;;;;23.48;16.92;;;;;;;2.70;73.86;99960.63;5030179;28;20059;-71
2021/03/19 04:11:08;;;;;;;24.95;18.00;;;;;;;2.75;73.65;99972.69;5030236;28;20420;-70
2021/03/19 04:13:33;;;;;;;23.02;17.58;;;;;;;2.83;73.93;99970.00;5029984;28;20033;-71
2021/03/19 04:16:00;;;;;;;24.70;18.15;;;;;;;2.89;73.39;99974.25;5029652;28;20036;-71
2021/03/19 04:18:27;;;;;;;24.88;16.15;;;;;;;2.87;73.55;99971.66;5038537;22;20038;-69
2021/03/19 04:20:55;;;;;;;21.98;18.55;;;;;;;2.89;72.77;99963.84;5010757;28;20045;-71
2021/03/19 04:23:21;;;;;;;28.63;22.23;;;;;;;2.67;73.47;99976.28;5002443;28;20029;-71
2021/03/19 04:25:46;;;;;;;28.60;20.38;;;;;;;2.67;73.86;99971.09;5008914;28;20033;-70
2021/03/19 04:28:14;;;;;;;28.33;20.58;;;;;;;2.52;73.44;99973.00;5008441;28;20452;-70
2021/03/19 04:30:43;;;;;;;31.20;20.48;;;;;;;2.56;74.17;99973.84;5009691;28;20468;-69
2021/03/19 04:33:18;;;;;;;28.63;20.15;;;;;;;2.54;73.89;99980.81;5010625;28;20113;-68
2021/03/19 04:35:45;;;;;;;28.67;20.60;;;;;;;2.51;73.57;99978.22;5010545;28;20397;-69
2021/03/19 04:38:15;;;;;;;25.42;19.13;;;;;;;2.56;73.13;99992.94;5010367;28;20045;-71
2021/03/19 04:40:43;;;;;;;29.98;22.90;;;;;;;2.58;73.82;99990.28;5001580;28;20148;-71
2021/03/19 04:43:10;;;;;;;26.95;19.65;;;;;;;2.56;73.44;99992.94;5010371;28;20095;-70
2021/03/19 04:45:40;;;;;;;32.90;23.45;;;;;;;2.50;73.81;100000.78;5010533;28;20034;-70
2021/03/19 04:48:06;;;;;;;28.25;21.52;;;;;;;2.44;73.26;99994.84;5009586;28;20030;-70
2021/03/19 04:50:31;;;;;;;34.65;23.40;;;;;;;2.36;73.73;99997.50;5008019;28;20041;-68
2021/03/19 04:52:56;;;;;;;25.10;20.25;;;;;;;2.36;73.83;100000.09;5008576;28;20549;-69
2021/03/19 04:55:22;;;;;;;28.88;20.02;;;;;;;2.40;73.84;99995.75;5010041;28;20030;-74
2021/03/19 04:57:47;;;;;;;33.63;22.13;;;;;;;2.41;73.57;100006.09;5008893;28;20029;-70
2021/03/19 05:00:15;;;;;;;30.42;22.05;;;;;;;2.39;73.65;100009.59;4991876;28;20042;-69
2021/03/19 05:02:46;;;;;;;31.30;21.50;;;;;;;2.37;73.43;100009.66;5009539;28;20099;-68
2021/03/19 05:05:27;;;;;;;29.10;20.23;;;;;;;2.37;74.04;100012.25;5024989;28;20488;-69
2021/03/19 05:07:54;;;;;;;30.48;21.92;;;;;;;2.43;74.18;100016.50;4996142;28;20034;-69
2021/03/19 05:10:22;;;;;;;34.00;21.88;;;;;;;2.40;73.86;100016.56;5009199;28;20034;-70
2021/03/19 05:12:47;;;;;;;30.60;23.48;;;;;;;2.28;73.66;100023.63;5001821;28;20045;-70
2021/03/19 05:15:14;;;;;;;32.08;26.05;;;;;;;2.25;74.82;100028.00;5009631;28;20029;-71
2021/03/19 05:17:40;;;;;;;30.77;24.52;;;;;;;2.21;74.29;100036.72;5009531;28;20122;-71
2021/03/19 05:20:08;;;;;;;43.67;22.88;;;;;;;2.24;74.22;100034.06;5009462;28;20120;-70
2021/03/19 05:22:33;;;;;;;31.30;22.85;;;;;;;2.17;73.90;100045.41;5009598;28;20026;-72
2021/03/19 05:24:59;;;;;;;32.58;23.38;;;;;;;2.17;74.85;100048.00;5000090;28;20394;-70
2021/03/19 05:27:25;;;;;;;34.38;23.83;;;;;;;2.13;73.89;100055.84;4997390;28;20049;-70
2021/03/19 05:29:54;;;;;;;35.90;26.95;;;;;;;2.05;74.25;100059.44;5001917;28;20451;-69
2021/03/19 05:32:19;;;;;;;31.98;24.85;;;;;;;2.07;74.93;100061.13;5009503;28;20038;-70
2021/03/19 05:34:45;;;;;;;29.40;20.73;;;;;;;2.15;75.11;100067.09;5009432;28;20041;-70
2021/03/19 05:37:11;;;;;;;31.05;24.25;;;;;;;2.13;75.39;100074.06;5009686;28;20040;-70
2021/03/19 05:39:36;;;;;;;28.10;22.48;;;;;;;2.12;75.36;100084.50;4998581;28;20038;-70
2021/03/19 05:42:02;;;;;;;38.28;28.75;;;;;;;2.00;75.94;100076.81;4999282;28;20080;-70
2021/03/19 05:44:27;;;;;;;34.38;27.05;;;;;;;1.99;75.97;100077.69;5009817;28;20076;-71
2021/03/19 05:47:02;;;;;;;35.65;24.70;;;;;;;2.07;76.52;100076.75;5010018;28;20107;-71
2021/03/19 05:49:31;;;;;;;41.10;28.13;;;;;;;2.06;75.68;100076.75;4999519;28;20478;-71
2021/03/19 05:52:13;;;;;;;38.58;28.50;;;;;;;2.03;76.12;100075.03;4995784;28;20034;-70
2021/03/19 05:54:41;;;;;;;37.63;26.98;;;;;;;2.09;76.00;100080.19;5004066;28;20033;-69
2021/03/19 05:57:09;;;;;;;40.33;29.77;;;;;;;2.12;76.00;100081.91;5009358;28;20088;-70
2021/03/19 05:59:37;;;;;;;32.00;25.27;;;;;;;2.13;75.65;100075.81;5008968;28;20096;-70
2021/03/19 06:02:29;;;;;;;35.35;25.30;;;;;;;2.20;75.50;100087.88;5000053;28;20053;-70
2021/03/19 06:05:23;;;;;;;35.28;25.30;;;;;;;2.14;75.17;100083.59;4998120;28;20575;-69
2021/03/19 06:07:50;;;;;;;34.78;26.27;;;;;;;2.14;75.78;100091.41;5001622;28;20066;-70
2021/03/19 06:10:24;;;;;;;31.35;21.77;;;;;;;2.18;74.61;100093.97;5010176;28;20488;-71
2021/03/19 06:12:52;;;;;;;33.28;22.65;;;;;;;2.23;74.35;100095.63;5001271;28;20034;-71
2021/03/19 06:15:36;;;;;;;27.63;19.23;;;;;;;2.29;74.35;100105.09;5001875;28;20091;-69
2021/03/19 06:18:05;;;;;;;31.23;21.80;;;;;;;2.32;74.32;100116.38;5030415;28;20044;-70
2021/03/19 06:20:31;;;;;;;30.17;22.20;;;;;;;2.33;74.00;100112.88;5009403;28;20045;-69
2021/03/19 06:23:05;;;;;;;27.27;19.98;;;;;;;2.33;73.93;100112.88;5009070;28;20038;-70
2021/03/19 06:26:00;;;;;;;28.13;20.73;;;;;;;2.32;74.00;100118.97;5006156;28;20048;-70
2021/03/19 06:28:36;;;;;;;28.55;20.92;;;;;;;2.30;73.02;100118.13;4992053;28;20043;-71
2021/03/19 06:31:21;;;;;;;31.77;23.48;;;;;;;2.34;73.70;100127.63;5024991;28;20037;-70
2021/03/19 06:34:01;;;;;;;38.35;23.48;;;;;;;2.32;73.43;100123.31;5011012;28;20385;-72
2021/03/19 06:36:26;;;;;;;29.30;22.52;;;;;;;2.24;73.34;100126.00;5011502;28;20293;-72
2021/03/19 06:39:36;;;;;;;35.10;24.15;;;;;;;2.24;73.65;100138.09;5012243;28;20042;-68
2021/03/19 06:42:08;;;;;;;35.05;24.58;;;;;;;2.23;73.99;100129.44;4978461;28;20497;-71
2021/03/19 06:44:33;;;;;;;36.55;25.40;;;;;;;2.21;73.02;100127.75;4992746;28;20045;-69
2021/03/19 06:47:04;;;;;;;31.80;24.77;;;;;;;2.07;73.99;100139.16;4992329;28;20113;-69
2021/03/19 06:49:46;;;;;;;34.05;25.00;;;;;;;2.11;73.95;100138.22;5041066;28;20037;-70
2021/03/19 06:52:23;;;;;;;45.40;27.67;;;;;;;2.14;74.01;100129.53;5032296;28;20034;-70
2021/03/19 06:54:53;;;;;;;41.67;25.65;;;;;;;2.15;73.84;100136.47;5031903;28;20257;-71
2021/03/19 06:57:20;;;;;;;46.38;30.00;;;;;;;2.06;74.63;100137.41;5028611;28;20095;-70
2021/03/19 06:59:54;;;;;;;40.35;28.27;;;;;;;2.09;75.83;100145.19;5018394;28;20041;-69
2021/03/19 07:02:35;;;;;;;40.83;28.65;;;;;;;2.27;74.66;100144.16;5024484;28;20575;-70
2021/03/19 07:05:33;;;;;;;40.05;28.73;;;;;;;2.35;75.82;100155.34;5009138;28;20040;-69
2021/03/19 07:08:13;;;;;;;41.00;28.92;;;;;;;2.42;75.05;100157.91;5008674;28;20489;-69
2021/03/19 07:10:41;;;;;;;43.72;29.67;;;;;;;2.46;73.08;100157.88;5009508;28;20033;-69
2021/03/19 07:13:27;;;;;;;37.92;28.95;;;;;;;2.53;73.38;100158.63;5010929;28;20042;-70
2021/03/19 07:16:10;;;;;;;36.83;27.37;;;;;;;2.56;72.66;100169.91;5011205;28;20057;-69
2021/03/19 07:18:54;;;;;;;39.42;28.17;;;;;;;2.57;73.12;100166.41;5008194;28;20285;-69
2021/03/19 07:21:58;;;;;;;45.03;29.65;;;;;;;2.72;72.74;100177.53;5008903;28;20612;-69
2021/03/19 07:24:29;;;;;;;42.03;27.80;;;;;;;2.84;71.63;100171.34;4921266;29;20031;-69
2021/03/19 07:27:01;;;;;;;39.53;24.67;;;;;;;2.71;70.96;100176.69;4947912;29;20124;-70
2021/03/19 07:30:04;;;;;;;31.00;22.13;;;;;;;2.71;71.48;100176.69;4979899;28;20100;-70
2021/03/19 07:32:42;;;;;;;38.30;23.92;;;;;;;2.82;71.39;100183.50;5010605;28;20045;-69
2021/03/19 07:35:29;;;;;;;30.30;22.23;;;;;;;2.83;71.14;100193.91;5010897;28;20037;-69
2021/03/19 07:38:06;;;;;;;31.38;24.83;;;;;;;2.78;70.60;100196.56;5008119;28;20084;-69
2021/03/19 07:40:34;;;;;;;34.45;22.45;;;;;;;2.79;70.39;100197.41;5010295;28;20049;-73
2021/03/19 07:43:06;;;;;;;42.10;25.90;;;;;;;2.60;70.17;100196.75;5006352;28;20486;-73
2021/03/19 07:46:02;;;;;;;30.30;21.63;;;;;;;2.47;71.40;100206.41;5012489;28;20045;-72
2021/03/19 07:48:54;;;;;;;30.38;22.80;;;;;;;2.42;71.36;100212.53;4999766;28;20073;-72
2021/03/19 07:51:41;;;;;;;32.67;23.75;;;;;;;2.58;71.23;100219.31;4982676;28;20077;-71
2021/03/19 07:54:15;;;;;;;28.88;22.33;;;;;;;2.85;69.83;100217.31;4995974;28;20113;-72
2021/03/19 07:57:05;;;;;;;36.13;25.13;;;;;;;2.78;69.07;100226.91;5007030;28;20045;-72
2021/03/19 07:59:46;;;;;;;32.65;23.40;;;;;;;3.37;67.85;100222.78;5008683;28;20103;-72
2021/03/19 08:02:11;;;;;;;33.50;22.38;;;;;;;3.56;66.69;100226.00;5006537;28;20459;-70
2021/03/19 08:04:39;;;;;;;32.25;22.15;;;;;;;4.04;65.14;100226.19;5008350;28;20129;-72
2021/03/19 08:07:25;;;;;;;31.48;23.77;;;;;;;4.56;63.24;100223.59;4999525;28;20045;-69
2021/03/19 08:10:00;;;;;;;46.60;34.17;;;;;;;4.24;64.75;100232.84;5003948;28;20110;-69
2021/03/19 08:12:32;;;;;;;45.50;29.20;;;;;;;3.86;65.92;100234.25;4998092;28;20034;-70
2021/03/19 08:15:05;;;;;;;31.13;22.10;;;;;;;3.89;65.38;100242.06;5001207;28;20069;-72
2021/03/19 08:17:53;;;;;;;27.80;21.15;;;;;;;3.75;65.48;100259.66;5000899;28;20050;-73
2021/03/19 08:20:58;;;;;;;28.95;22.70;;;;;;;3.90;65.54;100243.78;5001891;28;20075;-71
2021/03/19 08:23:47;;;;;;;33.05;26.15;;;;;;;3.85;65.04;100256.03;5000393;28;20038;-73
2021/03/19 08:26:28;;;;;;;29.83;22.35;;;;;;;4.35;63.55;100258.75;5002552;28;20113;-71
2021/03/19 08:29:01;;;;;;;31.17;20.88;;;;;;;5.06;61.37;100259.22;5005972;28;20057;-70
2021/03/19 08:31:48;;;;;;;26.02;18.63;;;;;;;5.16;60.52;100263.38;4999539;28;20552;-71
2021/03/19 08:34:32;;;;;;;25.55;18.00;;;;;;;5.03;61.85;100269.75;5006304;28;20116;-70
2021/03/19 08:36:57;;;;;;;21.60;15.50;;;;;;;5.63;59.67;100262.44;5009842;28;20034;-70
2021/03/19 08:39:44;;;;;;;23.20;16.30;;;;;;;5.85;58.11;100261.09;5010287;28;20092;-71
2021/03/19 08:42:19;;;;;;;;;;;;;;;5.53;57.30;100261.78;5010244;28;20168;-70
2021/03/19 08:44:46;;;;;;;28.10;18.10;;;;;;;5.50;57.50;100256.63;5008017;28;19999;-71
2021/03/19 08:47:11;;;;;;;35.00;24.33;;;;;;;6.66;55.23;100259.19;5024541;28;20164;-71
2021/03/19 08:49:44;;;;;;;25.75;17.05;;;;;;;8.01;51.29;100261.53;5027782;28;20128;-71
2021/03/19 08:52:28;;;;;;;22.50;14.35;;;;;;;8.75;49.56;100260.03;5028300;28;20544;-71
2021/03/19 08:55:11;;;;;;;14.95;11.85;;;;;;;9.28;48.07;100270.44;5028852;28;20385;-72
2021/03/19 08:57:38;;;;;;;19.70;12.85;;;;;;;9.68;45.43;100284.75;5028840;28;20519;-71
2021/03/19 09:00:08;;;;;;;15.48;11.05;;;;;;;9.49;46.35;100283.72;5014916;28;20045;-72
2021/03/19 09:02:44;;;;;;;11.63;9.57;;;;;;;9.56;46.21;100283.44;5029164;28;20556;-71
2021/03/19 09:05:26;;;;;;;17.65;9.82;;;;;;;9.57;44.89;100290.41;5029307;28;20029;-71
2021/03/19 09:08:13;;;;;;;12.98;9.65;;;;;;;10.04;43.64;100284.25;5029619;28;20120;-71
2021/03/19 09:10:39;;;;;;;11.82;8.10;;;;;;;9.62;45.01;100287.59;5029281;28;20037;-71
2021/03/19 09:13:11;;;;;;;16.35;9.32;;;;;;;9.35;45.53;100289.47;5029624;28;20128;-70
2021/03/19 09:15:41;;;;;;;12.27;8.77;;;;;;;9.57;44.38;100284.28;5028233;28;20037;-71
2021/03/19 09:18:12;;;;;;;11.10;8.55;;;;;;;9.17;44.62;100289.22;5025988;28;20543;-71
2021/03/19 09:20:38;;;;;;;11.38;8.27;;;;;;;9.45;43.32;100289.09;5007641;28;20049;-71
2021/03/19 09:23:12;;;;;;;12.18;8.73;;;;;;;8.87;44.69;100287.66;5009527;28;20030;-72
2021/03/19 09:25:41;;;;;;;11.48;7.40;;;;;;;9.39;43.97;100297.22;5010305;28;20061;-72
2021/03/19 09:28:30;;;;;;;11.10;7.22;;;;;;;9.72;42.22;100302.16;5024786;28;20041;-71
2021/03/19 09:31:08;;;;;;;14.80;7.65;;;;;;;10.43;42.21;100302.91;5008502;28;20136;-72
2021/03/19 09:33:42;;;;;;;9.43;7.47;;;;;;;10.84;40.17;100313.56;5004772;28;20428;-71
2021/03/19 09:36:46;;;;;;;11.63;7.38;;;;;;;10.40;40.34;100303.06;4990750;28;20398;-71
2021/03/19 09:39:48;;;;;;;10.27;6.20;;;;;;;9.62;42.06;100299.00;5003386;28;20104;-71
2021/03/19 09:42:20;;;;;;;9.68;6.88;;;;;;;8.05;45.48;100308.66;5003243;28;20046;-71
2021/03/19 09:44:48;;;;;;;13.88;7.15;;;;;;;8.68;43.78;100309.31;4993646;28;20034;-73
2021/03/19 09:47:16;;;;;;;11.95;6.13;;;;;;;9.80;41.52;100307.13;5008096;28;20037;-71
2021/03/19 09:49:42;;;;;;;10.18;6.18;;;;;;;10.81;39.54;100305.78;4995230;28;20045;-72
2021/03/19 09:52:20;;;;;;;7.75;4.68;;;;;;;11.51;36.60;100317.69;4993115;28;20117;-72
2021/03/19 09:54:47;;;;;;;11.70;6.30;;;;;;;11.36;37.18;100311.31;4992801;28;20520;-71
2021/03/19 09:57:27;;;;;;;8.90;5.53;;;;;;;11.31;35.96;100315.09;4993670;28;20117;-71
2021/03/19 09:59:55;;;;;;;5.90;4.40;;;;;;;11.23;35.48;100319.84;4993229;28;20495;-71
2021/03/19 10:02:25;;;;;;;5.45;4.05;;;;;;;11.18;35.94;100320.03;4993739;28;20034;-72
2021/03/19 10:04:51;;;;;;;8.25;4.78;;;;;;;11.75;36.41;100322.81;4993742;28;20047;-72
2021/03/19 10:07:25;;;;;;;8.73;5.38;;;;;;;10.82;36.58;100325.94;4992542;28;20034;-70
2021/03/19 10:09:57;;;;;;;12.03;5.53;;;;;;;12.09;35.50;100327.44;4995060;28;20034;-72
2021/03/19 10:12:36;;;;;;;6.45;5.15;;;;;;;12.44;33.60;100317.81;4995572;28;20034;-73
2021/03/19 10:15:20;;;;;;;6.93;5.18;;;;;;;12.83;33.29;100310.66;5013662;28;20109;-72
2021/03/19 10:17:53;;;;;;;7.10;5.30;;;;;;;11.15;35.51;100333.38;5012862;28;20041;-71
2021/03/19 10:20:22;;;;;;;6.65;4.63;;;;;;;11.35;35.39;100332.50;5011333;28;20045;-72
2021/03/19 10:22:51;;;;;;;8.73;4.10;;;;;;;11.41;35.58;100328.75;5012833;28;20037;-71
2021/03/19 10:25:33;;;;;;;12.48;5.47;;;;;;;10.47;37.29;100336.16;4995789;28;20686;-73
2021/03/19 10:28:02;;;;;;;9.55;5.28;;;;;;;10.05;38.09;100338.66;5009576;28;20058;-75
2021/03/19 10:30:33;;;;;;;11.23;6.50;;;;;;;9.59;38.53;100338.59;5009272;28;20409;-72
2021/03/19 10:33:08;;;;;;;9.48;5.38;;;;;;;9.58;40.09;100338.66;5009364;28;20049;-72
2021/03/19 10:35:38;;;;;;;7.13;4.75;;;;;;;9.79;38.77;100344.91;4999940;28;20398;-72
2021/03/19 10:38:29;;;;;;;6.82;5.05;;;;;;;10.48;36.83;100351.06;5010615;28;20378;-73
2021/03/19 10:41:01;;;;;;;11.63;4.43;;;;;;;11.63;34.38;100349.78;5002141;28;20194;-72
2021/03/19 10:43:36;;;;;;;7.90;5.38;;;;;;;10.09;36.58;100351.66;5003932;28;20042;-72
2021/03/19 10:46:39;;;;;;;10.55;4.70;;;;;;;9.36;38.78;100357.84;5005857;28;20136;-71
2021/03/19 10:49:35;;;;;;;6.47;4.65;;;;;;;8.49;41.21;100366.00;5013216;28;20113;-72
2021/03/19 10:52:06;;;;;;;8.18;5.97;;;;;;;8.09;41.78;100362.78;4982833;28;20117;-72
2021/03/19 10:54:39;;;;;;;10.23;5.20;;;;;;;7.42;42.48;100360.31;5010862;28;20037;-70
2021/03/19 10:57:34;;;;;;;10.80;5.15;;;;;;;7.26;44.31;100378.22;5011526;28;20100;-70
2021/03/19 11:00:00;;;;;;;7.63;4.55;;;;;;;7.63;43.92;100369.38;5011334;28;20046;-70
2021/03/19 11:02:30;;;;;;;7.65;4.53;;;;;;;7.42;44.29;100373.44;5011952;28;20034;-70
2021/03/19 11:04:55;;;;;;;8.00;4.65;;;;;;;7.21;45.33;100385.34;5011236;28;20405;-70
2021/03/19 11:07:27;;;;;;;8.55;4.90;;;;;;;6.96;45.55;100385.09;5002101;28;20046;-73
2021/03/19 11:10:18;;;;;;;9.85;4.07;;;;;;;7.03;44.59;100394.53;5002081;28;20501;-73
2021/03/19 11:13:08;;;;;;;8.23;4.65;;;;;;;6.96;44.33;100385.09;5006496;28;20034;-72
2021/03/19 11:15:33;;;;;;;6.90;4.90;;;;;;;6.69;45.11;100386.63;4990730;28;20058;-71
2021/03/19 11:18:22;;;;;;;5.70;4.03;;;;;;;6.72;44.35;100381.34;5006515;28;20048;-71
2021/03/19 11:21:01;;;;;;;5.47;4.32;;;;;;;6.95;44.34;100375.53;4993280;28;20042;-72
2021/03/19 11:23:36;;;;;;;6.85;3.67;;;;;;;7.09;44.22;100388.28;4989143;28;20046;-72
2021/03/19 11:26:29;;;;;;;9.27;4.65;;;;;;;7.30;44.13;100381.63;4993485;28;20382;-70
2021/03/19 11:29:12;;;;;;;6.55;3.50;;;;;;;7.35;42.89;100384.97;5026023;28;20369;-71
2021/03/19 11:31:56;;;;;;;7.65;3.75;;;;;;;7.30;43.35;100386.88;5025191;28;20049;-71
2021/03/19 11:34:40;;;;;;;8.90;4.20;;;;;;;7.38;43.75;100384.88;5024933;28;20855;-72
2021/03/19 11:37:12;;;;;;;7.47;3.55;;;;;;;7.48;41.91;100386.41;5005049;28;20057;-72
2021/03/19 11:39:53;;;;;;;6.40;3.67;;;;;;;7.56;42.15;100383.56;5005268;28;20517;-72
2021/03/19 11:42:43;;;;;;;9.13;3.95;;;;;;;7.62;42.40;100387.78;5039811;22;20772;-71
2021/03/19 11:45:18;;;;;;;3.90;3.15;;;;;;;7.27;42.65;100387.81;5032976;28;20044;-73
2021/03/19 11:48:06;;;;;;;6.05;3.35;;;;;;;7.32;42.39;100391.16;5025745;28;20029;-72
2021/03/19 11:50:37;;;;;;;4.05;3.08;;;;;;;7.37;41.40;100391.06;5043745;28;20041;-73
2021/03/19 11:53:09;;;;;;;4.88;3.42;;;;;;;7.47;40.87;100387.28;5037196;28;20067;-71
2021/03/19 11:55:39;;;;;;;6.05;3.00;;;;;;;7.52;40.53;100384.53;5028404;28;20075;-71